TimeCDT,TemperatureF,Dew PointF,Humidity,Sea Level PressureIn,VisibilityMPH,Wind Direction,Wind SpeedMPH,Gust SpeedMPH,PrecipitationIn,Events,Conditions,WindDirDegrees,DateUTC
12:15 AM,48.2,44.6,87,30.03,10.0,Calm,Calm,-,N/A,,Clear,0,2013-09-24 05:15:00
12:35 AM,50.0,46.4,87,30.03,10.0,Calm,Calm,-,N/A,,Clear,0,2013-09-24 05:35:00
12:55 AM,50.0,46.4,87,30.03,10.0,Calm,Calm,-,N/A,,Clear,0,2013-09-24 05:55:00
1:15 AM,50.0,46.4,87,30.03,10.0,Calm,Calm,-,N/A,,Clear,0,2013-09-24 06:15:00
1:35 AM,50.0,44.6,82,30.04,10.0,Calm,Calm,-,N/A,,Clear,0,2013-09-24 06:35:00
1:55 AM,50.0,46.4,87,30.04,10.0,Calm,Calm,-,N/A,,Clear,0,2013-09-24 06:55:00
2:15 AM,50.0,46.4,87,30.03,7.0,Calm,Calm,-,N/A,,Clear,0,2013-09-24 07:15:00
2:35 AM,48.2,44.6,87,30.03,7.0,East,3.5,-,N/A,,Clear,80,2013-09-24 07:35:00
2:55 AM,48.2,44.6,87,30.03,7.0,Calm,Calm,-,N/A,,Clear,0,2013-09-24 07:55:00
3:15 AM,46.4,44.6,93,30.03,10.0,Calm,Calm,-,N/A,,Clear,0,2013-09-24 08:15:00
3:35 AM,48.2,44.6,87,30.03,10.0,Calm,Calm,-,N/A,,Clear,0,2013-09-24 08:35:00
3:55 AM,48.2,44.6,87,30.04,10.0,Calm,Calm,-,N/A,,Clear,0,2013-09-24 08:55:00
4:15 AM,46.4,42.8,87,30.05,7.0,Calm,Calm,-,N/A,,Clear,0,2013-09-24 09:15:00
4:35 AM,46.4,44.6,93,30.05,5.0,Calm,Calm,-,N/A,,Clear,0,2013-09-24 09:35:00
4:55 AM,44.6,42.8,93,30.05,10.0,East,3.5,-,N/A,,Clear,90,2013-09-24 09:55:00
5:15 AM,46.4,42.8,87,30.05,10.0,East,3.5,-,N/A,,Clear,90,2013-09-24 10:15:00
5:35 AM,44.6,42.8,93,30.05,10.0,East,4.6,-,N/A,,Clear,90,2013-09-24 10:35:00
5:45 AM,46.4,42.8,87,30.05,10.0,East,5.8,-,N/A,,Clear,100,2013-09-24 10:45:00
7:45 AM,50.0,46.4,87,30.04,10.0,Calm,Calm,-,N/A,,Clear,0,2013-09-24 12:45:00
8:45 AM,55.4,48.2,77,30.04,10.0,ESE,5.8,-,N/A,,Clear,120,2013-09-24 13:45:00
9:45 AM,62.6,48.2,59,30.03,10.0,SE,6.9,-,N/A,,Clear,130,2013-09-24 14:45:00
10:45 AM,66.2,48.2,52,30.03,10.0,ESE,6.9,-,N/A,,Clear,120,2013-09-24 15:45:00
12:45 PM,71.6,44.6,38,29.99,10.0,ESE,8.1,-,N/A,,Clear,110,2013-09-24 17:45:00
1:45 PM,73.4,42.8,33,29.98,10.0,ESE,9.2,-,N/A,,Clear,120,2013-09-24 18:45:00
2:45 PM,73.4,44.6,36,29.96,10.0,ESE,6.9,-,N/A,,Clear,110,2013-09-24 19:45:00
3:45 PM,73.4,46.4,38,29.95,10.0,East,11.5,-,N/A,,Clear,90,2013-09-24 20:45:00
4:45 PM,73.4,44.6,36,29.95,10.0,East,10.4,16.1,N/A,,Clear,100,2013-09-24 21:45:00
5:45 PM,69.8,46.4,43,29.95,10.0,ESE,9.2,-,N/A,,Clear,110,2013-09-24 22:45:00
6:45 PM,64.4,48.2,56,29.95,10.0,East,10.4,-,N/A,,Clear,90,2013-09-24 23:45:00
7:45 PM,60.8,48.2,63,29.96,10.0,East,8.1,-,N/A,,Clear,90,2013-09-25 00:45:00
8:45 PM,55.4,48.2,77,29.98,10.0,East,5.8,-,N/A,,Clear,80,2013-09-25 01:45:00
9:15 PM,53.6,46.4,77,29.97,10.0,East,6.9,-,N/A,,Clear,80,2013-09-25 02:15:00
9:35 PM,53.6,46.4,77,29.97,10.0,East,4.6,-,N/A,,Clear,80,2013-09-25 02:35:00
9:55 PM,53.6,46.4,77,29.97,10.0,NE,5.8,-,N/A,,Clear,50,2013-09-25 02:55:00
10:15 PM,53.6,46.4,77,29.97,10.0,ENE,3.5,-,N/A,,Clear,60,2013-09-25 03:15:00
10:35 PM,51.8,46.4,82,29.97,10.0,ENE,5.8,-,N/A,,Clear,70,2013-09-25 03:35:00
10:55 PM,51.8,46.4,82,29.97,10.0,NE,5.8,-,N/A,,Clear,40,2013-09-25 03:55:00
11:15 PM,51.8,46.4,82,29.97,10.0,NE,5.8,-,N/A,,Clear,50,2013-09-25 04:15:00
11:35 PM,51.8,46.4,82,29.97,10.0,NE,3.5,-,N/A,,Clear,40,2013-09-25 04:35:00
11:55 PM,51.8,46.4,82,29.97,10.0,Calm,Calm,-,N/A,,Clear,0,2013-09-25 04:55:00